Time;durP1;ratioP1;P1;durP2;ratioP2;P2;SDS_P1;SDS_P2;PMS_P1;PMS_P2;Temp;Humidity;BMP_temperature;BMP_pressure;BME280_temperature;BME280_humidity;BME280_pressure;Samples;Min_cycle;Max_cycle;Signal;HPM_P1;HPM_P2
2020/12/01 00:01:50;;;;;;;5.65;4.33;;;;;;;5.21;57.37;101561.50;1806173;79;21585;-77
2020/12/01 00:04:21;;;;;;;6.75;5.17;;;;;;;5.22;57.27;101567.18;1806309;79;21060;-78
2020/12/01 00:06:49;;;;;;;5.72;4.45;;;;;;;5.21;57.26;101558.84;1806266;79;21075;-77
2020/12/01 00:09:17;;;;;;;6.05;4.97;;;;;;;5.24;57.30;101565.30;1806109;79;21798;-76
2020/12/01 00:11:45;;;;;;;5.78;4.62;;;;;;;5.22;57.36;101568.50;1806122;79;21070;-76
2020/12/01 00:14:14;;;;;;;6.03;4.28;;;;;;;5.23;57.33;101570.23;1806100;79;21157;-76
2020/12/01 00:16:45;;;;;;;6.35;4.40;;;;;;;5.20;57.30;101561.12;1806072;79;21169;-76
2020/12/01 00:19:14;;;;;;;7.20;4.78;;;;;;;5.18;57.29;101556.37;1806344;79;21146;-76
2020/12/01 00:21:44;;;;;;;6.92;4.67;;;;;;;5.18;57.36;101562.56;1806252;79;21790;-77
2020/12/01 00:24:12;;;;;;;6.03;4.83;;;;;;;5.18;57.43;101560.35;1806230;79;21109;-77
2020/12/01 00:26:40;;;;;;;6.37;5.60;;;;;;;5.18;57.52;101558.58;1806280;79;21129;-77
2020/12/01 00:29:08;;;;;;;9.38;6.08;;;;;;;5.18;57.52;101551.94;1805446;79;21169;-77
2020/12/01 00:31:40;;;;;;;7.15;6.00;;;;;;;5.20;57.51;101559.31;1805922;79;21066;-77
2020/12/01 00:34:10;;;;;;;7.28;6.03;;;;;;;5.18;57.51;101549.28;1806251;79;21358;-77
2020/12/01 00:36:38;;;;;;;6.62;4.83;;;;;;;5.18;57.52;101548.39;1806178;79;21078;-77
2020/12/01 00:39:08;;;;;;;7.15;5.28;;;;;;;5.19;57.51;101550.12;1806325;79;21055;-77
2020/12/01 00:41:36;;;;;;;7.17;5.22;;;;;;;5.22;57.50;101555.23;1806339;79;21058;-78
2020/12/01 00:44:04;;;;;;;7.05;5.53;;;;;;;5.24;57.56;101552.02;1806330;79;21051;-78
2020/12/01 00:46:32;;;;;;;7.28;5.60;;;;;;;5.24;57.50;101550.21;1806389;79;21792;-77
2020/12/01 00:49:00;;;;;;;5.35;4.78;;;;;;;5.25;57.50;101557.22;1806168;79;21164;-78
2020/12/01 00:51:29;;;;;;;6.90;4.92;;;;;;;5.25;57.51;101555.89;1806211;79;21166;-77
2020/12/01 00:53:58;;;;;;;6.25;4.72;;;;;;;5.25;57.48;101557.70;1806304;79;21087;-77
2020/12/01 00:56:26;;;;;;;7.37;5.70;;;;;;;5.24;57.52;101554.67;1806352;79;21058;-77
2020/12/01 00:58:54;;;;;;;7.10;5.10;;;;;;;5.25;57.48;101557.70;1806223;79;21871;-77
2020/12/01 01:01:25;;;;;;;6.20;4.87;;;;;;;5.23;57.45;101558.28;1805005;79;21117;-77
2020/12/01 01:03:54;;;;;;;6.08;4.45;;;;;;;5.22;57.48;101550.80;1784572;79;21161;-77
2020/12/01 01:06:22;;;;;;;5.35;4.75;;;;;;;5.22;57.48;101548.14;1806238;79;21110;-77
2020/12/01 01:08:49;;;;;;;9.33;5.55;;;;;;;5.23;57.47;101548.51;1806386;79;21651;-76
2020/12/01 01:11:30;;;;;;;7.83;6.15;;;;;;;5.22;57.49;101547.26;1806295;79;21362;-77
2020/12/01 01:13:59;;;;;;;8.78;5.78;;;;;;;5.22;57.52;101551.24;1806244;79;21079;-77
2020/12/01 01:16:27;;;;;;;7.92;5.95;;;;;;;5.22;57.52;101549.91;1806185;79;21070;-78
2020/12/01 01:18:56;;;;;;;7.97;5.75;;;;;;;5.01;57.93;101547.67;1806226;79;21098;-77
2020/12/01 01:21:24;;;;;;;7.83;5.30;;;;;;;5.17;57.66;101545.37;1806085;79;21054;-77
2020/12/01 01:23:52;;;;;;;9.70;7.17;;;;;;;5.17;57.60;101550.69;1806354;79;21778;-78
2020/12/01 01:26:20;;;;;;;7.62;5.90;;;;;;;5.20;57.65;101547.84;1806124;79;21161;-78
2020/12/01 01:28:48;;;;;;;7.62;5.85;;;;;;;5.22;57.66;101539.29;1806182;79;21033;-78
2020/12/01 01:31:19;;;;;;;7.30;5.53;;;;;;;5.24;57.62;101546.70;1806290;79;21520;-77
2020/12/01 01:33:47;;;;;;;7.58;6.08;;;;;;;5.26;57.51;101536.81;1806200;79;21138;-77
2020/12/01 01:36:14;;;;;;;7.10;4.70;;;;;;;5.26;57.44;101538.15;1806186;79;21798;-78
2020/12/01 01:38:42;;;;;;;7.85;5.42;;;;;;;5.27;57.42;101536.75;1806249;79;21589;-77
2020/12/01 01:41:11;;;;;;;6.97;5.42;;;;;;;5.26;57.38;101547.45;1806221;79;21595;-77
2020/12/01 01:43:39;;;;;;;9.38;6.22;;;;;;;5.24;57.43;101554.20;1806221;79;21055;-77
2020/12/01 01:46:42;;;;;;;5.90;4.58;;;;;;;5.29;57.31;101548.11;1806303;79;21062;-78
2020/12/01 01:49:17;;;;;;;8.75;6.20;;;;;;;5.30;57.26;101534.34;1806004;79;21754;-78
2020/12/01 01:51:50;;;;;;;6.20;5.25;;;;;;;5.22;57.44;101541.50;1806120;79;21054;-78
2020/12/01 01:54:19;;;;;;;9.08;6.28;;;;;;;5.22;57.45;101528.22;1806310;79;21050;-77
2020/12/01 01:56:50;;;;;;;8.50;6.22;;;;;;;5.24;57.40;101522.80;1806219;79;21505;-78
2020/12/01 01:59:18;;;;;;;7.30;5.62;;;;;;;5.24;57.40;101524.97;1806356;79;21066;-80
2020/12/01 02:01:46;;;;;;;7.25;5.78;;;;;;;5.24;57.43;101525.45;1806246;79;21799;-77
2020/12/01 02:04:14;;;;;;;8.68;6.22;;;;;;;5.25;57.39;101524.02;1806146;79;21142;-79
2020/12/01 02:06:53;;;;;;;7.22;5.58;;;;;;;5.24;57.38;101522.80;1806299;79;21122;-79
2020/12/01 02:09:42;;;;;;;7.47;6.03;;;;;;;5.21;57.42;101519.00;1806304;79;21573;-77
2020/12/01 02:12:12;;;;;;;6.25;4.58;;;;;;;5.20;57.46;101518.15;1787419;79;21169;-77
2020/12/01 02:15:02;;;;;;;6.33;5.20;;;;;;;5.20;57.43;101508.00;1806250;79;22226;-76
2020/12/01 02:17:33;;;;;;;7.87;5.47;;;;;;;5.20;57.52;101518.15;1805880;79;21596;-76
2020/12/01 02:20:13;;;;;;;7.83;6.08;;;;;;;5.19;57.53;101525.75;1806134;79;21121;-76
2020/12/01 02:22:46;;;;;;;8.93;7.08;;;;;;;5.19;57.50;101527.55;1806256;79;21082;-76
2020/12/01 02:25:31;;;;;;;8.73;6.35;;;;;;;5.19;57.53;101528.87;1806200;79;21097;-77
2020/12/01 02:28:02;;;;;;;5.47;4.72;;;;;;;5.23;57.45;101526.41;1806333;79;21515;-77
2020/12/01 02:30:29;;;;;;;6.70;4.70;;;;;;;5.28;57.24;101526.48;1806287;79;21133;-76
2020/12/01 02:32:57;;;;;;;5.97;4.40;;;;;;;5.28;57.17;101528.30;1806324;79;21063;-77
2020/12/01 02:35:25;;;;;;;6.05;4.47;;;;;;;5.26;57.16;101528.85;1806291;79;21042;-79
2020/12/01 02:37:53;;;;;;;5.53;4.22;;;;;;;5.26;57.25;101526.20;1806166;79;21157;-78
2020/12/01 02:40:21;;;;;;;5.72;4.50;;;;;;;5.19;57.41;101527.55;1806295;79;22226;-76
2020/12/01 02:42:51;;;;;;;6.78;5.30;;;;;;;5.21;57.43;101526.97;1806217;79;21086;-76
2020/12/01 02:45:20;;;;;;;6.00;4.58;;;;;;;5.22;57.39;101523.35;1806203;79;21133;-77
2020/12/01 02:47:48;;;;;;;6.70;5.25;;;;;;;5.22;57.36;101529.99;1806199;79;21062;-77
2020/12/01 02:50:16;;;;;;;7.67;5.65;;;;;;;5.28;57.17;101531.80;1806117;79;21134;-76
2020/12/01 02:52:44;;;;;;;7.67;6.03;;;;;;;5.31;57.06;101538.26;1806151;79;21414;-77
2020/12/01 02:55:12;;;;;;;9.68;6.67;;;;;;;5.33;57.09;101540.80;1806150;79;21127;-77
2020/12/01 02:57:40;;;;;;;7.17;6.03;;;;;;;5.32;57.04;101542.61;1806157;79;21137;-76
2020/12/01 03:00:09;;;;;;;5.72;4.70;;;;;;;5.32;57.01;101531.14;1806112;79;21145;-76
2020/12/01 03:02:38;;;;;;;5.92;4.75;;;;;;;5.34;57.02;101539.84;1806360;79;21039;-76
2020/12/01 03:05:05;;;;;;;6.78;5.28;;;;;;;5.35;56.97;101540.22;1806259;79;21762;-79
2020/12/01 03:07:33;;;;;;;6.97;5.37;;;;;;;5.38;56.92;101537.86;1806048;79;21130;-76
2020/12/01 03:10:01;;;;;;;7.17;5.50;;;;;;;5.38;56.88;101540.52;1806281;79;21113;-76
2020/12/01 03:12:31;;;;;;;6.40;4.67;;;;;;;5.38;56.84;101533.39;1806155;79;21564;-76
2020/12/01 03:15:00;;;;;;;6.30;5.12;;;;;;;5.38;56.80;101536.05;1806102;79;21074;-76
2020/12/01 03:17:30;;;;;;;6.78;5.17;;;;;;;5.35;56.79;101538.89;1806255;79;22132;-76
2020/12/01 03:19:58;;;;;;;6.12;4.80;;;;;;;5.34;56.81;101539.84;1806039;79;21177;-75
2020/12/01 03:22:26;;;;;;;5.50;4.28;;;;;;;5.20;57.11;101541.20;1806082;79;21063;-77
2020/12/01 03:24:54;;;;;;;5.45;4.40;;;;;;;5.25;57.08;101539.11;1806175;79;21130;-78
2020/12/01 03:27:22;;;;;;;4.65;4.12;;;;;;;5.32;56.94;101540.44;1806187;79;21098;-76
2020/12/01 03:29:50;;;;;;;4.85;4.12;;;;;;;5.30;57.02;101547.16;1806117;79;21810;-76
2020/12/01 03:32:17;;;;;;;6.12;4.10;;;;;;;5.19;57.30;101548.80;1806211;79;21497;-76
2020/12/01 03:34:45;;;;;;;6.75;4.97;;;;;;;5.35;56.88;101545.05;1806069;79;21111;-76
2020/12/01 03:37:13;;;;;;;6.10;4.97;;;;;;;5.37;56.81;101558.27;1806220;79;21097;-76
2020/12/01 03:39:41;;;;;;;5.67;4.33;;;;;;;5.38;56.79;101557.30;1806292;79;21591;-76
2020/12/01 03:42:09;;;;;;;5.12;3.80;;;;;;;5.38;56.68;101545.83;1806241;79;22423;-77
2020/12/01 03:44:37;;;;;;;5.53;4.30;;;;;;;5.34;56.64;101557.12;1806141;79;21509;-77
2020/12/01 03:47:05;;;;;;;6.08;4.22;;;;;;;5.32;56.68;101557.23;1805783;79;21063;-77
2020/12/01 03:49:33;;;;;;;4.65;4.22;;;;;;;5.32;56.70;101563.02;1804103;79;21158;-76
2020/12/01 03:52:01;;;;;;;6.12;4.75;;;;;;;5.32;56.67;101559.88;1805080;79;21197;-76
2020/12/01 03:54:28;;;;;;;6.00;5.00;;;;;;;5.32;56.70;101562.54;1804959;79;21352;-77
2020/12/01 03:56:57;;;;;;;5.53;4.60;;;;;;;5.33;56.73;101568.70;1806187;79;21566;-77
2020/12/01 03:59:25;;;;;;;6.40;4.62;;;;;;;5.34;56.74;101557.12;1805952;79;21166;-76
2020/12/01 04:01:52;;;;;;;6.90;4.70;;;;;;;5.34;56.75;101550.00;1805592;79;21170;-76
2020/12/01 04:04:20;;;;;;;6.10;4.87;;;;;;;5.34;56.72;101553.13;1805832;79;21173;-76
2020/12/01 04:06:48;;;;;;;6.70;4.22;;;;;;;5.33;56.75;101546.12;1806324;79;21332;-77
2020/12/01 04:09:16;;;;;;;5.17;4.08;;;;;;;5.34;56.69;101549.14;1806317;79;21498;-77
2020/12/01 04:11:44;;;;;;;4.97;3.92;;;;;;;5.34;56.71;101543.83;1806320;79;21063;-78
2020/12/01 04:14:12;;;;;;;5.25;3.87;;;;;;;5.35;56.71;101550.84;1806384;79;21600;-78
2020/12/01 04:16:40;;;;;;;4.92;4.25;;;;;;;5.35;56.68;101556.16;1806334;79;21153;-78
2020/12/01 04:19:08;;;;;;;4.95;3.92;;;;;;;5.35;56.68;101557.48;1806367;79;21047;-77
2020/12/01 04:21:36;;;;;;;7.35;4.70;;;;;;;5.36;56.63;101555.23;1806193;79;21066;-77
2020/12/01 04:24:04;;;;;;;6.55;4.62;;;;;;;5.35;56.62;101544.20;1806354;79;21050;-78
2020/12/01 04:26:32;;;;;;;5.10;4.00;;;;;;;5.36;56.62;101549.92;1806383;79;21126;-77
2020/12/01 04:29:00;;;;;;;5.53;4.40;;;;;;;5.35;56.58;101560.14;1801703;79;21189;-78
2020/12/01 04:31:28;;;;;;;6.25;4.22;;;;;;;5.33;56.61;101557.59;1798957;79;21210;-77
2020/12/01 04:33:55;;;;;;;4.83;3.92;;;;;;;5.31;56.65;101550.21;1770011;81;21110;-78
2020/12/01 04:36:23;;;;;;;5.40;4.35;;;;;;;5.32;56.75;101553.23;1802446;79;21137;-77
2020/12/01 04:38:51;;;;;;;4.53;4.08;;;;;;;5.33;56.80;101556.75;1770561;81;21178;-78
2020/12/01 04:41:19;;;;;;;6.00;4.22;;;;;;;5.35;56.81;101560.14;1801324;79;21174;-78
2020/12/01 04:43:54;;;;;;;5.35;4.15;;;;;;;5.37;56.85;101554.27;1769769;81;21630;-79
2020/12/01 04:46:24;;;;;;;5.42;4.25;;;;;;;5.38;56.90;101561.28;1777565;79;21673;-78
2020/12/01 04:49:00;;;;;;;5.83;4.50;;;;;;;5.38;56.87;101557.78;1770165;81;21209;-78
2020/12/01 04:52:22;;;;;;;6.00;4.92;;;;;;;5.39;56.93;101554.16;1841120;77;22711;-78
2020/12/01 04:55:21;;;;;;;6.28;4.17;;;;;;;5.33;56.95;101553.61;1811803;79;21109;-79
2020/12/01 04:58:43;;;;;;;5.97;4.47;;;;;;;5.30;57.06;101558.26;1792908;79;21699;-76
2020/12/01 05:01:32;;;;;;;5.55;3.83;;;;;;;5.31;57.17;101558.18;1808850;79;21675;-77
2020/12/01 05:04:14;;;;;;;5.55;4.30;;;;;;;5.33;57.31;101548.77;1804568;79;21164;-78
2020/12/01 05:07:10;;;;;;;6.37;4.45;;;;;;;5.32;57.27;101547.08;1803524;79;21164;-77
2020/12/01 05:09:49;;;;;;;6.20;4.50;;;;;;;5.33;57.33;101548.77;1794938;79;21176;-79
2020/12/01 05:12:26;;;;;;;7.03;5.03;;;;;;;5.28;57.42;101550.88;1775905;80;21327;-79
2020/12/01 05:14:57;;;;;;;5.03;3.87;;;;;;;5.23;57.59;101551.64;1784303;79;21018;-81
2020/12/01 05:17:47;;;;;;;6.70;4.00;;;;;;;5.29;57.49;101556.08;1749270;80;21175;-81
2020/12/01 05:20:15;;;;;;;4.45;3.98;;;;;;;5.15;57.80;101555.25;1775565;80;21336;-80
2020/12/01 05:22:51;;;;;;;7.70;4.58;;;;;;;5.14;57.85;101560.19;1775879;80;21144;-80
2020/12/01 05:25:25;;;;;;;6.20;4.08;;;;;;;5.08;58.10;101558.27;1783462;77;21468;-80
2020/12/01 05:28:14;;;;;;;5.97;4.45;;;;;;;5.07;58.23;101553.06;1788118;79;21152;-78
2020/12/01 05:30:42;;;;;;;6.55;4.37;;;;;;;5.06;58.27;101549.56;1776138;80;21575;-79
2020/12/01 05:33:21;;;;;;;4.83;3.62;;;;;;;5.22;57.95;101559.20;1784093;79;21185;-78
2020/12/01 05:36:08;;;;;;;5.85;4.70;;;;;;;5.26;57.73;101558.07;1792041;79;21169;-80
2020/12/01 05:38:36;;;;;;;5.60;3.55;;;;;;;5.26;57.73;101559.40;1812674;79;21358;-79
2020/12/01 05:41:24;;;;;;;5.60;4.45;;;;;;;5.26;57.73;101553.61;1804265;79;21581;-79
2020/12/01 05:43:59;;;;;;;5.78;4.47;;;;;;;5.27;57.75;101559.80;1813189;79;21635;-78
2020/12/01 05:46:37;;;;;;;5.67;4.10;;;;;;;5.29;57.75;101553.91;1807253;79;21195;-78
2020/12/01 05:49:23;;;;;;;7.22;4.75;;;;;;;5.31;57.69;101554.64;1816281;78;21156;-78
2020/12/01 05:52:02;;;;;;;5.70;4.53;;;;;;;5.26;57.80;101555.41;1815055;79;21418;-77
2020/12/01 05:54:39;;;;;;;7.90;5.33;;;;;;;5.14;58.09;101547.77;1802288;79;21120;-79
2020/12/01 05:57:20;;;;;;;7.30;5.58;;;;;;;5.13;58.10;101548.69;1803256;77;21559;-77
2020/12/01 06:00:06;;;;;;;8.00;5.50;;;;;;;5.18;58.10;101557.69;1795466;79;21579;-79
2020/12/01 06:03:00;;;;;;;7.77;5.43;;;;;;;5.27;57.92;101556.66;1773480;80;21151;-76
2020/12/01 06:05:28;;;;;;;9.88;7.22;;;;;;;5.30;57.85;101560.91;1789381;79;22215;-77
2020/12/01 06:08:02;;;;;;;8.53;5.67;;;;;;;5.32;57.78;101563.02;1810679;77;21308;-82
2020/12/01 06:10:39;;;;;;;9.75;5.90;;;;;;;5.35;57.79;101561.47;1801562;77;21437;-81
2020/12/01 06:13:31;;;;;;;9.45;5.67;;;;;;;5.34;57.73;101569.07;1787419;78;21682;-79
2020/12/01 06:16:04;;;;;;;6.00;4.72;;;;;;;5.35;57.70;101576.09;1784784;78;21659;-78
2020/12/01 06:19:00;;;;;;;6.37;4.60;;;;;;;5.36;57.72;101569.84;1789169;80;22908;-79
2020/12/01 06:21:52;;;;;;;6.45;4.67;;;;;;;5.37;57.73;101576.01;1789413;77;21147;-77
2020/12/01 06:24:58;;;;;;;6.50;4.83;;;;;;;5.32;57.93;101572.31;1792825;77;21127;-79
2020/12/01 06:28:04;;;;;;;7.95;5.87;;;;;;;5.33;57.84;101560.73;1792492;79;21104;-79
2020/12/01 06:31:07;;;;;;;6.53;5.33;;;;;;;5.38;57.75;101559.95;1789232;79;21097;-80
2020/12/01 06:34:22;;;;;;;8.93;6.00;;;;;;;5.38;57.66;101567.08;1814295;77;21390;-79
2020/12/01 06:37:25;;;;;;;7.05;5.22;;;;;;;5.35;57.69;101560.99;1793809;77;21139;-78
2020/12/01 06:40:18;;;;;;;9.60;6.17;;;;;;;5.34;57.70;101567.74;1784448;78;21675;-78
2020/12/01 06:43:03;;;;;;;6.33;5.05;;;;;;;5.36;57.69;101567.19;1779121;79;21113;-79
2020/12/01 06:45:45;;;;;;;5.90;4.78;;;;;;;5.40;57.75;101570.48;1777583;78;21101;-78
2020/12/01 06:48:19;;;;;;;9.53;6.37;;;;;;;5.42;57.73;101571.25;1784745;78;22154;-79
2020/12/01 06:50:56;;;;;;;8.93;5.67;;;;;;;5.44;57.71;101574.65;1781076;79;21148;-78
2020/12/01 06:53:34;;;;;;;8.05;5.62;;;;;;;5.45;57.70;101573.24;1778876;78;21096;-79
2020/12/01 06:56:08;;;;;;;;;;;;;;;5.46;57.72;101574.09;1784791;79;21088;-79
2020/12/01 06:58:47;;;;;;;8.00;5.45;;;;;;;5.46;57.69;101564.31;1778365;79;20619;-77
2020/12/01 07:01:29;;;;;;;9.33;6.23;;;;;;;5.42;57.73;101560.14;1770463;79;21580;-79
2020/12/01 07:04:14;;;;;;;8.38;5.28;;;;;;;5.46;57.79;101568.30;1780299;78;21140;-80
2020/12/01 07:07:03;;;;;;;7.70;5.25;;;;;;;5.48;57.79;101563.73;1764581;80;21117;-79
2020/12/01 07:09:42;;;;;;;7.20;5.37;;;;;;;5.51;57.76;101567.53;1766693;80;21127;-80
2020/12/01 07:12:25;;;;;;;9.23;6.15;;;;;;;5.52;57.70;101573.21;1783223;79;21121;-79
2020/12/01 07:15:15;;;;;;;7.90;5.45;;;;;;;5.53;57.73;101582.88;1795862;79;21202;-80
2020/12/01 07:17:53;;;;;;;11.03;6.70;;;;;;;5.55;57.70;101574.36;1794590;79;21132;-80
2020/12/01 07:21:02;;;;;;;6.80;5.47;;;;;;;5.53;57.69;101576.72;1789906;79;21119;-80
2020/12/01 07:23:46;;;;;;;9.33;6.10;;;;;;;5.54;57.73;101584.62;1716767;79;21128;-81
2020/12/01 07:26:26;;;;;;;8.73;5.78;;;;;;;5.57;57.77;101583.06;1746269;79;21124;-80
2020/12/01 07:29:21;;;;;;;7.00;5.22;;;;;;;5.60;57.80;101582.88;1800850;79;21344;-81
2020/12/01 07:31:49;;;;;;;8.73;6.00;;;;;;;5.64;57.78;101584.88;1789408;77;21638;-79
2020/12/01 07:34:23;;;;;;;8.08;6.60;;;;;;;5.65;57.75;101587.91;1793664;78;21137;-78
2020/12/01 07:36:56;;;;;;;11.08;6.92;;;;;;;5.67;57.77;101584.66;1794513;77;21109;-78
2020/12/01 07:39:28;;;;;;;7.92;5.70;;;;;;;5.79;58.27;101597.16;1795735;77;21073;-77
2020/12/01 07:42:01;;;;;;;11.60;7.72;;;;;;;5.96;58.00;101592.11;1798672;77;21378;-76
2020/12/01 07:44:40;;;;;;;10.38;6.25;;;;;;;6.14;57.86;101588.72;1796452;77;21166;-78
2020/12/01 07:47:26;;;;;;;7.65;5.15;;;;;;;6.30;57.78;101584.06;1798431;77;21128;-78
2020/12/01 07:49:57;;;;;;;9.78;5.75;;;;;;;6.47;57.39;101588.25;1797494;77;21164;-77
2020/12/01 07:52:39;;;;;;;7.62;5.55;;;;;;;6.60;56.92;101591.80;1798792;77;21084;-78
2020/12/01 07:55:36;;;;;;;7.37;5.35;;;;;;;6.71;56.67;101588.86;1797456;77;21173;-80
2020/12/01 07:58:17;;;;;;;8.83;5.95;;;;;;;6.83;56.43;101585.36;1795262;77;21123;-77
2020/12/01 08:00:54;;;;;;;9.43;6.45;;;;;;;6.96;56.16;101585.37;1781928;79;21098;-77
2020/12/01 08:03:33;;;;;;;8.80;6.40;;;;;;;7.08;55.93;101586.66;1789776;77;21108;-78
2020/12/01 08:06:05;;;;;;;8.55;5.80;;;;;;;7.20;55.53;101586.78;1791120;79;21132;-76
2020/12/01 08:08:37;;;;;;;6.75;5.08;;;;;;;7.25;55.20;101592.63;1796295;78;21332;-77
2020/12/01 08:11:16;;;;;;;8.60;5.80;;;;;;;7.25;55.01;101584.63;1795816;77;21136;-78
2020/12/01 08:13:44;;;;;;;8.40;5.95;;;;;;;7.26;55.03;101585.84;1796623;77;21112;-79
2020/12/01 08:16:21;;;;;;;8.90;5.60;;;;;;;7.31;54.87;101585.06;1800104;77;21390;-78
2020/12/01 08:18:50;;;;;;;12.30;7.03;;;;;;;7.35;54.61;101584.34;1797098;77;21126;-77
2020/12/01 08:21:32;;;;;;;9.30;6.08;;;;;;;7.34;54.34;101587.97;1800027;77;22009;-79
2020/12/01 08:24:04;;;;;;;10.50;6.15;;;;;;;7.22;54.20;101587.50;1789367;77;21110;-78
2020/12/01 08:26:34;;;;;;;10.40;6.90;;;;;;;7.03;54.31;101591.47;1793297;77;21116;-77
2020/12/01 08:29:24;;;;;;;10.72;6.95;;;;;;;6.85;54.58;101582.10;1794422;77;21092;-78
2020/12/01 08:32:19;;;;;;;10.78;7.95;;;;;;;6.71;54.84;101579.06;1803842;77;21078;-78
2020/12/01 08:35:33;;;;;;;13.60;8.50;;;;;;;6.58;55.16;101583.04;1797701;77;22208;-78
2020/12/01 08:38:34;;;;;;;12.80;9.23;;;;;;;6.46;55.49;101579.05;1796010;77;21117;-78
2020/12/01 08:41:20;;;;;;;12.37;8.25;;;;;;;6.28;55.93;101581.15;1785195;77;21099;-78
2020/12/01 08:43:56;;;;;;;11.70;7.95;;;;;;;6.19;56.26;101581.77;1782504;77;21080;-78
2020/12/01 08:46:25;;;;;;;9.83;7.12;;;;;;;6.14;56.48;101577.23;1795578;77;21969;-78
2020/12/01 08:49:47;;;;;;;11.33;7.67;;;;;;;6.10;56.70;101577.42;1793126;79;21587;-77
2020/12/01 08:51:51;;;;;;;12.25;8.48;;;;;;;6.13;56.85;101575.50;1769513;79;21013;-78
2020/12/01 08:54:26;;;;;;;15.25;8.93;;;;;;;6.10;56.98;101570.77;1798774;79;21117;-79
2020/12/01 08:57:12;;;;;;;12.18;7.90;;;;;;;6.07;57.12;101572.30;1796625;77;21116;-78
2020/12/01 08:59:54;;;;;;;13.13;8.00;;;;;;;6.07;57.20;101572.30;1790906;77;21580;-77
2020/12/01 09:02:22;;;;;;;13.13;8.73;;;;;;;6.05;57.31;101571.56;1796326;79;21445;-77
2020/12/01 09:05:00;;;;;;;12.33;6.97;;;;;;;6.04;57.38;101573.85;1800529;77;21599;-77
2020/12/01 09:07:37;;;;;;;13.25;8.60;;;;;;;6.03;57.44;101564.63;1795545;77;21119;-79
2020/12/01 09:10:27;;;;;;;11.57;7.95;;;;;;;6.01;57.51;101554.58;1798548;77;21165;-78
2020/12/01 09:13:08;;;;;;;13.03;7.90;;;;;;;6.03;57.60;101552.66;1785606;78;21085;-77
2020/12/01 09:24:01;;;;;;;12.93;8.08;;;;;;;6.05;57.66;101539.64;1781688;79;21089;-78
2020/12/01 09:26:31;;;;;;;14.60;8.78;;;;;;;6.07;57.70;101540.86;1783045;79;21090;-80
2020/12/01 09:29:01;;;;;;;12.45;7.53;;;;;;;6.04;57.75;101537.95;1767098;79;21439;-77
2020/12/01 09:31:36;;;;;;;12.40;7.60;;;;;;;6.04;57.81;101540.61;1782702;79;21117;-78
2020/12/01 09:34:06;;;;;;;11.18;7.92;;;;;;;6.03;57.87;101538.87;1779353;79;21133;-77
2020/12/01 09:36:34;;;;;;;13.88;7.95;;;;;;;6.03;57.94;101536.22;1782874;78;21607;-75
2020/12/01 09:39:03;;;;;;;12.73;8.48;;;;;;;6.05;57.99;101549.44;1779452;78;22131;-77
2020/12/01 09:41:32;;;;;;;12.47;8.43;;;;;;;6.06;58.00;101544.48;1782194;79;21334;-80
2020/12/01 09:44:43;;;;;;;13.13;9.20;;;;;;;6.07;58.00;101541.70;1771068;79;21184;-76
2020/12/01 09:46:58;;;;;;;10.68;7.72;;;;;;;6.10;58.04;101543.33;1775863;78;21168;-77
2020/12/01 09:49:20;;;;;;;13.20;8.05;;;;;;;6.12;58.02;101541.88;1779820;79;21317;-76
2020/12/01 09:51:58;;;;;;;14.58;8.33;;;;;;;6.12;58.04;101535.23;1780665;79;21145;-78
2020/12/01 09:54:28;;;;;;;13.18;8.78;;;;;;;6.14;58.09;101538.17;1789110;78;21124;-79
2020/12/01 09:56:57;;;;;;;15.30;8.75;;;;;;;6.17;58.11;101537.95;1803386;78;21517;-77
2020/12/01 09:59:39;;;;;;;14.50;9.40;;;;;;;6.19;58.11;101533.88;1799058;78;22130;-77
2020/12/01 10:12:38;;;;;;;17.35;10.58;;;;;;;6.29;58.07;101521.65;1794221;77;21100;-77
2020/12/01 10:18:22;;;;;;;14.90;9.18;;;;;;;6.36;58.03;101516.30;1792475;77;21096;-80
2020/12/01 10:26:15;;;;;;;16.57;9.63;;;;;;;6.40;57.96;101511.11;1786075;77;21197;-77
2020/12/01 10:36:39;;;;;;;19.65;11.97;;;;;;;6.38;58.01;101518.36;1792531;77;21195;-80
2020/12/01 10:39:07;;;;;;;17.85;11.22;;;;;;;6.39;58.09;101516.55;1812696;77;21183;-78
2020/12/01 10:41:39;;;;;;;18.40;11.97;;;;;;;6.41;58.20;101522.16;1798017;79;21229;-79
2020/12/01 10:44:07;;;;;;;18.45;11.80;;;;;;;6.44;58.19;101515.75;1795846;77;21523;-79
2020/12/01 10:46:38;;;;;;;17.73;11.08;;;;;;;6.46;58.23;101505.38;1798473;77;22320;-81
2020/12/01 10:49:06;;;;;;;17.98;11.68;;;;;;;6.48;58.22;101512.77;1795567;77;21115;-80
2020/12/01 10:54:16;;;;;;;20.12;11.38;;;;;;;6.52;58.37;101508.94;1795862;79;23393;-81
2020/12/01 10:56:48;;;;;;;17.70;9.23;;;;;;;6.47;58.39;101503.09;1757387;80;21206;-78
2020/12/01 10:59:16;;;;;;;20.97;11.53;;;;;;;6.48;58.48;101507.45;1788585;79;21258;-78
2020/12/01 11:01:44;;;;;;;19.52;11.28;;;;;;;6.47;58.54;101501.75;1791734;79;21146;-82
2020/12/01 11:04:12;;;;;;;18.48;11.00;;;;;;;6.47;58.67;101500.91;1790822;79;21110;-81
2020/12/01 11:06:41;;;;;;;19.62;11.83;;;;;;;6.47;58.73;101500.42;1788208;79;21093;-81
2020/12/01 11:09:09;;;;;;;19.75;11.15;;;;;;;6.44;58.80;101500.63;1776119;79;21112;-80
2020/12/01 11:11:38;;;;;;;21.80;11.53;;;;;;;6.40;58.90;101508.45;1773791;79;22234;-79
2020/12/01 11:14:10;;;;;;;19.32;10.93;;;;;;;6.36;59.00;101501.66;1777484;79;21161;-82
2020/12/01 11:16:38;;;;;;;14.68;8.70;;;;;;;6.33;59.15;101504.52;1774142;79;21205;-82
2020/12/01 11:19:10;;;;;;;16.48;10.30;;;;;;;6.36;59.11;101502.98;1769725;79;21736;-81
2020/12/01 11:21:45;;;;;;;15.25;9.83;;;;;;;6.34;59.16;101507.55;1774042;79;21212;-80
2020/12/01 11:24:13;;;;;;;19.32;11.08;;;;;;;6.27;59.42;101512.94;1771071;79;22264;-79
2020/12/01 11:26:44;;;;;;;17.50;11.28;;;;;;;6.21;59.65;101502.69;1768975;79;21197;-79
2020/12/01 11:29:15;;;;;;;20.62;12.25;;;;;;;6.19;59.81;101509.45;1771399;79;21660;-79
2020/12/01 11:31:47;;;;;;;21.73;12.18;;;;;;;6.20;59.93;101505.83;1772493;79;21169;-80
2020/12/01 11:34:15;;;;;;;20.50;11.75;;;;;;;6.19;59.98;101503.28;1770168;79;22069;-81
2020/12/01 11:36:43;;;;;;;19.12;10.80;;;;;;;6.20;60.12;101503.66;1770318;79;21455;-79
2020/12/01 11:39:13;;;;;;;19.90;11.53;;;;;;;6.21;60.19;101502.69;1774629;79;21132;-79
2020/12/01 11:41:42;;;;;;;20.00;11.78;;;;;;;6.22;60.26;101508.37;1774861;79;21493;-79
2020/12/01 11:44:13;;;;;;;24.65;13.48;;;;;;;6.24;60.30;101511.80;1771098;79;21104;-80
2020/12/01 11:46:43;;;;;;;25.62;14.30;;;;;;;6.27;60.34;101508.94;1776357;79;21026;-79
2020/12/01 11:49:13;;;;;;;22.70;12.58;;;;;;;6.27;60.35;101506.28;1773287;79;21377;-79
2020/12/01 11:51:44;;;;;;;25.02;14.35;;;;;;;6.27;60.36;101511.60;1772079;79;21125;-79
2020/12/01 11:54:11;;;;;;;29.57;17.02;;;;;;;6.30;60.38;101506.05;1784537;79;21133;-80
2020/12/01 11:56:42;;;;;;;26.37;13.62;;;;;;;6.33;60.40;101503.19;1768061;80;21096;-80
2020/12/01 11:59:10;;;;;;;25.82;15.03;;;;;;;6.38;60.38;101510.86;1767649;80;21131;-79
2020/12/01 12:01:41;;;;;;;27.80;15.75;;;;;;;6.41;60.31;101500.86;1761137;80;22370;-80
2020/12/01 12:04:09;;;;;;;31.20;16.90;;;;;;;6.43;60.23;101494.94;1785220;79;21133;-80
2020/12/01 12:06:37;;;;;;;29.50;15.50;;;;;;;6.41;60.26;101500.02;1795557;79;21092;-81
2020/12/01 12:09:13;;;;;;;29.87;16.02;;;;;;;6.39;60.31;101502.76;1759232;80;21197;-80
2020/12/01 12:11:50;;;;;;;23.62;14.05;;;;;;;6.37;60.37;101501.17;1759602;80;21202;-80
2020/12/01 12:14:19;;;;;;;20.10;11.68;;;;;;;6.39;60.35;101499.25;1758562;80;21205;-78
2020/12/01 12:16:50;;;;;;;22.80;13.28;;;;;;;6.42;60.39;101504.37;1762161;80;21786;-78
2020/12/01 12:19:31;;;;;;;26.73;13.60;;;;;;;6.41;60.43;101497.34;1756919;79;21244;-78
2020/12/01 12:22:27;;;;;;;24.43;12.37;;;;;;;6.43;60.46;101498.08;1766494;80;21121;-83
2020/12/01 12:25:14;;;;;;;24.80;13.13;;;;;;;6.45;60.42;101503.69;1752015;80;21094;-80
2020/12/01 12:27:58;;;;;;;22.15;10.55;;;;;;;6.44;60.42;101499.78;1731002;80;21426;-80
2020/12/01 12:30:31;;;;;;;18.98;11.25;;;;;;;6.45;60.46;101513.00;1734274;80;21146;-81
2020/12/01 12:33:11;;;;;;;19.98;11.33;;;;;;;6.44;60.52;101508.61;1767368;79;21228;-80
2020/12/01 12:35:43;;;;;;;24.23;13.18;;;;;;;6.44;60.58;101503.29;1771389;79;21224;-79
2020/12/01 12:38:12;;;;;;;23.75;13.18;;;;;;;6.44;60.59;101511.27;1762432;80;21213;-80
2020/12/01 12:40:43;;;;;;;24.32;12.73;;;;;;;6.43;60.60;101508.73;1763090;79;21687;-80
2020/12/01 12:43:16;;;;;;;18.02;11.15;;;;;;;6.43;60.60;101524.70;1762806;79;21375;-82